Flight Track Log - Related Links

Times and Time Zones

All times are in EST time to prevent confusion due to time zone crossing. See the EJA929 flight status page for this flight to view local times or setup timezone preferences in your user account.

Time Position Orientation Groundspeed Altitude Reporting Facility
EST Latitude Longitude Course Direction KTS MPH feet Rate Location/Type
Wed 09:23:33 PM 42.7500 -87.8167 153° Southeast 133 153 1,100  Level KMKE
Wed 09:25:12 PM 42.6756 -87.7658 153° Southeast 235 270 3,800 1,081 Climbing Chicago Center
Wed 09:26:14 PM 42.6197 -87.7178 148° Southeast 239 275 4,000 145 Climbing Chicago Center
Wed 09:27:16 PM 42.5619 -87.6831 156° South 230 265 4,100 48 Climbing Chicago Center
Wed 09:28:18 PM 42.4856 -87.6361 156° South 258 297 4,100 -97 Level Chicago Center
Wed 09:29:20 PM 42.4167 -87.5978 158° South 268 308 3,900 -484 Descending Chicago Center
Wed 09:30:22 PM 42.3469 -87.5569 157° South 262 302 3,100 -390 Descending Chicago Center
Wed 09:31:23 PM 42.2939 -87.5231 155° Southeast 235 270 3,100  Level Chicago Center
Wed 09:32:25 PM 42.2406 -87.4906 156° South 221 254 3,100  Level Chicago Center
Wed 09:33:27 PM 42.1858 -87.4558 155° Southeast 216 249 3,100  Level Chicago Center
Wed 09:34:29 PM 42.1325 -87.4231 155° Southeast 214 246 3,100  Level Chicago Center
Wed 09:35:31 PM 42.0783 -87.3892 155° Southeast 214 246 3,100  Level Chicago Center
Wed 09:36:32 PM 42.0250 -87.3547 154° Southeast 213 245 3,100  Level Chicago Center
Wed 09:37:34 PM 41.9550 -87.3603 183° South 214 246 3,100 -242 Level Chicago Center
Wed 09:38:36 PM 41.9000 -87.3767 193° South 208 239 2,600 -244 Descending Chicago Center
Wed 09:39:37 PM 41.8450 -87.3942 193° South 205 236 2,600  Level Chicago Center
Wed 09:40:39 PM 41.8117 -87.4456 229° Southwest 199 229 2,600 -97 Level Chicago Center
Wed 09:41:41 PM 41.7819 -87.5075 237° Southwest 199 229 2,400 -244 Descending Chicago Center
Wed 09:42:42 PM 41.7533 -87.5689 238° Southwest 196 226 2,100 -146 Descending Chicago Center
Wed 09:43:44 PM 41.7239 -87.6336 239° Southwest 200 230 2,100 -49 Level Chicago Center
Wed 09:44:45 PM 41.7392 -87.6886 290° West 180 207 2,000 -488 Descending Chicago Center
Wed 09:45:47 PM 41.7697 -87.7317 314° West 153 176 1,100 -871 Descending Chicago Center

Login

Don't have an account? Register now (free) for customized features, flight alerts, and more!